createdAt,value
2019-02-15T00:03:53.900Z,11.41
2019-02-15T00:09:48.887Z,11.61
2019-02-15T00:15:43.900Z,12.22
2019-02-15T00:21:38.872Z,11.04
2019-02-15T00:27:33.873Z,11.95
2019-02-15T00:33:28.895Z,15.05
2019-02-15T00:39:23.878Z,14.78
2019-02-15T00:45:18.896Z,13.87
2019-02-15T00:51:13.919Z,14.16
2019-02-15T00:57:08.891Z,14.16
2019-02-15T01:03:03.908Z,13.89
2019-02-15T01:08:58.936Z,13.54
2019-02-15T01:14:53.942Z,12.71
2019-02-15T01:20:48.905Z,12.53
2019-02-15T01:26:43.901Z,12.92
2019-02-15T01:32:38.896Z,12.97
2019-02-15T01:38:33.948Z,13.61
2019-02-15T01:44:28.922Z,13.49
2019-02-15T01:50:23.920Z,12.65
2019-02-15T01:56:18.930Z,12.05
2019-02-15T02:02:14.039Z,11.92
2019-02-15T02:08:08.983Z,11.95
2019-02-15T02:14:03.936Z,11.67
2019-02-15T02:19:58.919Z,12.48
2019-02-15T02:25:53.935Z,11.81
2019-02-15T02:31:48.951Z,11.44
2019-02-15T02:37:43.993Z,10.76
2019-02-15T02:43:38.948Z,11.2
2019-02-15T02:49:33.947Z,11.12
2019-02-15T02:55:28.963Z,11.07
2019-02-15T03:01:23.987Z,11.1
2019-02-15T03:07:19.003Z,11.01
2019-02-15T03:13:14.006Z,11.03
2019-02-15T03:19:08.952Z,12.06
2019-02-15T03:25:03.988Z,11.48
2019-02-15T03:30:58.993Z,10.92
2019-02-15T03:36:53.961Z,11.3
2019-02-15T03:42:48.973Z,10.59
2019-02-15T03:48:44.019Z,11.07
2019-02-15T03:54:38.993Z,10.35
2019-02-15T04:00:33.982Z,9.53
2019-02-15T04:06:29.123Z,9.23
2019-02-15T04:12:24.043Z,10.18
2019-02-15T04:18:19.032Z,9.85
2019-02-15T04:24:13.997Z,9.73
2019-02-15T04:30:08.990Z,10.51
2019-02-15T04:36:04.054Z,9.73
2019-02-15T04:41:59.011Z,9.09
2019-02-15T04:47:54.027Z,10.21
2019-02-15T04:53:49.029Z,9.47
2019-02-15T04:59:44.006Z,9.64
2019-02-15T05:05:39.042Z,9.3
2019-02-15T05:11:34.043Z,8.89
2019-02-15T05:17:29.098Z,8.61
2019-02-15T05:23:24.046Z,7.88
2019-02-15T05:29:19.108Z,8.96
2019-02-15T05:35:14.081Z,8.76
2019-02-15T05:41:09.048Z,8.21
2019-02-15T05:47:04.041Z,9.52
2019-02-15T05:52:59.042Z,10.04
2019-02-15T05:58:54.075Z,9.25
2019-02-15T06:04:49.109Z,10.03
2019-02-15T06:10:44.070Z,10.31
2019-02-15T06:16:39.096Z,9.23
2019-02-15T06:22:34.073Z,9.71
2019-02-15T06:28:29.072Z,10.43
2019-02-15T06:34:24.101Z,9.85
2019-02-15T06:40:19.099Z,10.51
2019-02-15T06:46:14.080Z,13.42
2019-02-15T06:52:09.084Z,11.42
2019-02-15T06:58:04.099Z,12.41
2019-02-15T07:03:59.085Z,11.9
2019-02-15T07:09:54.118Z,12.4
2019-02-15T07:15:49.101Z,13.12
2019-02-15T07:21:44.086Z,13.9
2019-02-15T07:27:39.114Z,11.61
2019-02-15T07:33:34.138Z,13.03
2019-02-15T07:39:29.112Z,12.57
2019-02-15T07:45:24.096Z,12.78
2019-02-15T07:51:19.103Z,12.68
2019-02-15T07:57:14.113Z,13.1
2019-02-15T08:03:09.119Z,13.41
2019-02-15T08:09:04.112Z,14.2
2019-02-15T08:14:59.129Z,13.68
2019-02-15T08:20:54.165Z,13.38
2019-02-15T08:26:49.150Z,12.45
2019-02-15T08:32:44.148Z,13.03
2019-02-15T08:38:39.159Z,15.12
2019-02-15T08:44:34.181Z,13.06
2019-02-15T08:50:29.157Z,14.04
2019-02-15T08:56:24.158Z,14.47
2019-02-15T09:02:19.163Z,14.79
2019-02-15T09:08:14.199Z,12.95
2019-02-15T09:14:09.214Z,12.9
2019-02-15T09:20:04.162Z,11.89
2019-02-15T09:25:59.152Z,13.16
2019-02-15T09:31:54.182Z,12.73
2019-02-15T09:37:49.173Z,12.78
2019-02-15T09:43:44.173Z,15
2019-02-15T09:49:39.167Z,14.66
2019-02-15T09:55:34.174Z,12.54
2019-02-15T10:01:29.230Z,13.47
2019-02-15T10:07:24.184Z,13.46
2019-02-15T10:13:19.197Z,13.2
2019-02-15T10:19:22.115Z,11.98
2019-02-15T10:25:09.207Z,12.63
2019-02-15T10:31:04.211Z,12.26
2019-02-15T10:36:59.213Z,11.71
2019-02-15T10:42:54.192Z,10.91
2019-02-15T10:48:49.208Z,13
2019-02-15T10:54:44.265Z,12.77
2019-02-15T11:00:39.207Z,11.86
2019-02-15T11:06:34.216Z,11.13
2019-02-15T11:12:29.239Z,11.8
2019-02-15T11:18:24.282Z,11.17
2019-02-15T11:24:19.228Z,10.73
2019-02-15T11:30:14.255Z,10.2
2019-02-15T11:36:09.267Z,10.41
2019-02-15T11:42:04.246Z,10.34
2019-02-15T11:47:59.251Z,10.47
2019-02-15T11:53:54.240Z,11.19
2019-02-15T11:59:49.266Z,9.33
2019-02-15T12:05:44.254Z,10.01
2019-02-15T12:11:39.318Z,10.07
2019-02-15T12:17:34.255Z,10.3
2019-02-15T12:23:29.294Z,10.41
2019-02-15T12:29:24.251Z,9.53
2019-02-15T12:35:19.256Z,10.03
2019-02-15T12:41:14.286Z,9.37
2019-02-15T12:47:14.985Z,9.67
2019-02-15T12:53:04.283Z,10.34
2019-02-15T12:58:59.293Z,10.8
2019-02-15T13:04:54.285Z,10.69
2019-02-15T13:10:49.305Z,12.2
2019-02-15T13:16:44.367Z,11.23
2019-02-15T13:22:39.337Z,10.65
2019-02-15T13:28:34.298Z,11.6
2019-02-15T13:34:29.373Z,12.7
2019-02-15T13:40:24.311Z,11.7
2019-02-15T13:46:19.317Z,11.31
2019-02-15T13:52:14.306Z,11.27
2019-02-15T13:58:09.396Z,10.43
2019-02-15T14:04:04.367Z,10.61
2019-02-15T14:09:59.320Z,10.43
2019-02-15T14:15:54.339Z,9.77
2019-02-15T14:21:49.351Z,9.67
2019-02-15T14:27:44.346Z,8.15
2019-02-15T14:33:39.341Z,8.2
2019-02-15T14:39:34.343Z,8.05
2019-02-15T14:45:29.355Z,7.52
2019-02-15T14:51:24.372Z,7.22
2019-02-15T14:57:19.425Z,7.01
2019-02-15T15:03:14.383Z,7.74
2019-02-15T15:09:09.407Z,7.41
2019-02-15T15:15:04.366Z,7.05
2019-02-15T15:20:59.405Z,7.91
2019-02-15T15:26:54.388Z,7.84
2019-02-15T15:32:49.387Z,9.22
2019-02-15T15:38:44.404Z,8.7
2019-02-15T15:44:39.444Z,8.28
2019-02-15T15:50:34.435Z,8.51
2019-02-15T15:56:29.413Z,6.65
2019-02-15T16:02:24.407Z,6.87
2019-02-15T16:08:19.450Z,6.29
2019-02-15T16:14:14.421Z,6.39
2019-02-15T16:20:09.405Z,6.23
2019-02-15T16:26:04.422Z,6.64
2019-02-15T16:31:59.419Z,6.78
2019-02-15T16:37:54.476Z,8.59
2019-02-15T16:43:49.449Z,12.8
2019-02-15T16:49:44.439Z,10.24
2019-02-15T16:55:39.435Z,10.83
2019-02-15T17:01:34.428Z,10.45
2019-02-15T17:07:29.442Z,13.35
2019-02-15T17:13:24.465Z,18.26
2019-02-15T17:19:19.468Z,14.89
2019-02-15T17:25:14.435Z,15.67
2019-02-15T17:31:09.476Z,15.55
2019-02-15T17:37:06.438Z,15.9
2019-02-15T17:42:59.455Z,15.29
2019-02-15T17:49:00.470Z,16.88
2019-02-15T17:54:49.468Z,19.77
2019-02-15T18:00:44.487Z,17.3
2019-02-15T18:06:39.491Z,18.41
2019-02-15T18:12:34.525Z,19.07
2019-02-15T18:18:29.508Z,17.32
2019-02-15T18:24:24.507Z,16.91
2019-02-15T18:30:19.512Z,17.58
2019-02-15T18:36:14.540Z,18.22
2019-02-15T18:42:09.508Z,19.9
2019-02-15T18:48:04.620Z,19.65
2019-02-15T18:53:59.526Z,20.48
2019-02-15T18:59:54.505Z,17.47
2019-02-15T19:05:49.503Z,13.73
2019-02-15T19:11:44.514Z,30.66
2019-02-15T19:17:39.520Z,13.22
2019-02-15T19:23:34.519Z,23.49
2019-02-15T19:29:29.527Z,13.36
2019-02-15T19:35:24.554Z,15.32
2019-02-15T19:41:19.571Z,11.77
2019-02-15T19:47:14.551Z,15.08
2019-02-15T19:53:09.557Z,11.64
2019-02-15T19:59:04.564Z,12.85
2019-02-15T20:04:59.574Z,10.87
2019-02-15T20:10:54.589Z,11.46
2019-02-15T20:16:49.593Z,11.06
2019-02-15T20:22:44.580Z,12.27
2019-02-15T20:28:39.600Z,13.24
2019-02-15T20:34:34.591Z,11.49
2019-02-15T20:40:29.641Z,11.72
2019-02-15T20:46:24.579Z,10.68
2019-02-15T20:52:19.638Z,9.87
2019-02-15T20:58:14.601Z,8.57
2019-02-15T21:04:09.581Z,8.89
2019-02-15T21:10:04.600Z,8.78
2019-02-15T21:15:59.582Z,14.78
2019-02-15T21:21:54.580Z,7.24
2019-02-15T21:27:49.611Z,8.39
2019-02-15T21:33:44.604Z,7.41
2019-02-15T21:39:39.596Z,6.27
2019-02-15T21:45:34.607Z,7.52
2019-02-15T21:51:29.606Z,8.12
2019-02-15T21:57:24.658Z,7.17
2019-02-15T22:03:19.656Z,6.69
2019-02-15T22:09:14.619Z,6.87
2019-02-15T22:15:09.639Z,5.51
2019-02-15T22:21:04.623Z,7.05
2019-02-15T22:26:59.624Z,6.28
2019-02-15T22:32:54.640Z,4.54
2019-02-15T22:38:49.675Z,4.2
2019-02-15T22:44:44.734Z,4.52
2019-02-15T22:50:39.640Z,4.24
2019-02-15T22:56:34.692Z,4.47
2019-02-15T23:02:29.688Z,4.04
2019-02-15T23:08:24.662Z,4.69
2019-02-15T23:14:19.667Z,4.61
2019-02-15T23:20:14.662Z,4.26
2019-02-15T23:26:09.773Z,4.63
2019-02-15T23:32:04.668Z,3.67
2019-02-15T23:37:59.690Z,3.34
2019-02-15T23:43:54.731Z,3.92
2019-02-15T23:49:49.694Z,3.35
2019-02-15T23:55:44.715Z,3.5
